Westfield, MA

12:42 PM EDT on August 24, 2016 (GMT -0400)
Westfield | | Change Station

Elev 262 ft 42.13 °N, 72.79 °W | Updated 53 minutes ago

Clear
Clear
85.8 °F
Feels Like 85.8 °F
N
-
Wind Variable Wind from West

Today
High -- | Low -- °F
--% Chance of Precip.
Yesterday
High -- | Low -- °F
Precip. -- in
Pressure 30.23 in
Visibility 10.0 miles
Clouds Clear
Dew Point 64.8 °F
Humidity 49%
Rainfall Not available.
Snow Depth Not available.
6:08 AM 7:37 PM
Waning Gibbous, 55% visible
METAR KBAF 241553Z VRB06KT 10SM CLR 27/16 A3023 RMK AO2 SLP235 T02720161
Pressure 30.23 in
Visibility 10.0 miles
Clouds Clear
Dew Point 64.8 °F
Humidity 49%
Rainfall Not available.
Snow Depth Not available.
6:08 AM 7:37 PM
Waning Gibbous, 55% visible
METAR KBAF 241553Z VRB06KT 10SM CLR 27/16 A3023 RMK AO2 SLP235 T02720161

10-Day Weather Forecast

Almanac

Astronomy

Aug. 24, 2016 Rise Set
Actual Time
Civil Twilight
Nautical Twilight
Astronomical Twilight
Moon
Length of Visible Light
Length of Day
Tomorrow will be .
, % of the Moon is Illuminated

Today's Extremes

State Highs State Lows

Community

WunderPhotos

Upload Photos

1,934,652 photos uploaded!

WunderBlog® & News

Nearby

Air Quality

  Air Quality AQ Index Pollutant
Not available.

Snow Depth

Station Depth Elevation

Earthquake Activity

City Distance Mag. Time & Date
Minimum magnitude displayed is 2.5.

Coastal Water Temperatures

Place Temperature

Stations

Nearby Weather Stations

Station Location Temp. Windchill Dew Point Humidity Wind Precip. Elev Updated Type
                   

Watches & Warnings

There are currently no watches in effect.